sensor_id;sensor_type;location;lat;lon;timestamp;temperature;humidity
14993;DHT22;7592;51.088;13.732;2023-02-01T00:04:11;5.30;99.90
14993;DHT22;7592;51.088;13.732;2023-02-01T00:09:04;5.20;99.90
14993;DHT22;7592;51.088;13.732;2023-02-01T00:13:57;5.10;99.90
14993;DHT22;7592;51.088;13.732;2023-02-01T00:18:51;5.10;99.90
14993;DHT22;7592;51.088;13.732;2023-02-01T00:23:44;5.30;99.90
14993;DHT22;7592;51.088;13.732;2023-02-01T00:28:36;5.30;99.90
14993;DHT22;7592;51.088;13.732;2023-02-01T00:33:29;5.40;99.90
14993;DHT22;7592;51.088;13.732;2023-02-01T00:38:21;5.50;99.90
14993;DHT22;7592;51.088;13.732;2023-02-01T00:43:13;5.60;99.90
14993;DHT22;7592;51.088;13.732;2023-02-01T00:48:05;5.70;99.90
14993;DHT22;7592;51.088;13.732;2023-02-01T00:52:57;5.80;99.90
14993;DHT22;7592;51.088;13.732;2023-02-01T00:57:49;5.80;99.90
14993;DHT22;7592;51.088;13.732;2023-02-01T01:02:41;5.80;99.90
14993;DHT22;7592;51.088;13.732;2023-02-01T01:07:35;5.80;99.90
14993;DHT22;7592;51.088;13.732;2023-02-01T01:12:27;5.80;99.90
14993;DHT22;7592;51.088;13.732;2023-02-01T01:17:19;5.60;99.90
14993;DHT22;7592;51.088;13.732;2023-02-01T01:22:11;5.50;99.90
14993;DHT22;7592;51.088;13.732;2023-02-01T01:27:03;5.40;99.90
14993;DHT22;7592;51.088;13.732;2023-02-01T01:31:55;5.40;99.90
14993;DHT22;7592;51.088;13.732;2023-02-01T01:36:47;5.60;99.90
14993;DHT22;7592;51.088;13.732;2023-02-01T01:41:39;5.70;99.90
14993;DHT22;7592;51.088;13.732;2023-02-01T01:46:46;5.80;99.90
14993;DHT22;7592;51.088;13.732;2023-02-01T01:51:42;5.90;99.90
14993;DHT22;7592;51.088;13.732;2023-02-01T01:56:35;5.80;99.90
14993;DHT22;7592;51.088;13.732;2023-02-01T02:01:27;5.90;99.90
14993;DHT22;7592;51.088;13.732;2023-02-01T02:13:40;6.00;99.90
14993;DHT22;7592;51.088;13.732;2023-02-01T02:44:37;5.90;99.90
14993;DHT22;7592;51.088;13.732;2023-02-01T02:50:04;5.80;99.90
14993;DHT22;7592;51.088;13.732;2023-02-01T02:55:18;5.60;99.90
14993;DHT22;7592;51.088;13.732;2023-02-01T03:00:15;5.60;99.90
14993;DHT22;7592;51.088;13.732;2023-02-01T03:05:33;5.60;99.90
14993;DHT22;7592;51.088;13.732;2023-02-01T03:11:04;5.70;99.90
14993;DHT22;7592;51.088;13.732;2023-02-01T03:21:26;5.80;99.90
14993;DHT22;7592;51.088;13.732;2023-02-01T03:26:22;5.70;99.90
14993;DHT22;7592;51.088;13.732;2023-02-01T03:31:16;5.80;99.90
14993;DHT22;7592;51.088;13.732;2023-02-01T03:36:15;5.90;99.90
14993;DHT22;7592;51.088;13.732;2023-02-01T03:41:20;5.90;99.90
14993;DHT22;7592;51.088;13.732;2023-02-01T03:46:21;6.00;99.90
14993;DHT22;7592;51.088;13.732;2023-02-01T03:51:19;6.10;99.90
14993;DHT22;7592;51.088;13.732;2023-02-01T03:56:12;6.10;99.90
14993;DHT22;7592;51.088;13.732;2023-02-01T04:01:06;6.20;99.90
14993;DHT22;7592;51.088;13.732;2023-02-01T04:06:02;6.10;99.90
14993;DHT22;7592;51.088;13.732;2023-02-01T04:10:54;6.10;99.90
14993;DHT22;7592;51.088;13.732;2023-02-01T04:15:47;6.10;99.90
14993;DHT22;7592;51.088;13.732;2023-02-01T04:20:42;6.10;99.90
14993;DHT22;7592;51.088;13.732;2023-02-01T04:25:35;6.10;99.90
14993;DHT22;7592;51.088;13.732;2023-02-01T04:30:27;6.10;99.90
14993;DHT22;7592;51.088;13.732;2023-02-01T04:35:21;6.10;99.90
14993;DHT22;7592;51.088;13.732;2023-02-01T04:40:13;6.10;99.90
14993;DHT22;7592;51.088;13.732;2023-02-01T04:45:06;6.00;99.90
14993;DHT22;7592;51.088;13.732;2023-02-01T04:49:58;6.00;99.90
14993;DHT22;7592;51.088;13.732;2023-02-01T04:54:50;6.00;99.90
14993;DHT22;7592;51.088;13.732;2023-02-01T04:59:46;5.90;99.90
14993;DHT22;7592;51.088;13.732;2023-02-01T05:04:38;5.90;99.90
14993;DHT22;7592;51.088;13.732;2023-02-01T05:09:30;5.90;99.90
14993;DHT22;7592;51.088;13.732;2023-02-01T05:14:22;5.90;99.90
14993;DHT22;7592;51.088;13.732;2023-02-01T05:19:14;5.90;99.90
14993;DHT22;7592;51.088;13.732;2023-02-01T05:24:08;5.90;99.90
14993;DHT22;7592;51.088;13.732;2023-02-01T05:29:12;6.00;99.90
14993;DHT22;7592;51.088;13.732;2023-02-01T05:34:04;6.00;99.90
14993;DHT22;7592;51.088;13.732;2023-02-01T05:38:56;6.00;99.90
14993;DHT22;7592;51.088;13.732;2023-02-01T05:43:48;6.00;99.90
14993;DHT22;7592;51.088;13.732;2023-02-01T05:48:41;6.10;99.90
14993;DHT22;7592;51.088;13.732;2023-02-01T05:53:33;6.10;99.90
14993;DHT22;7592;51.088;13.732;2023-02-01T05:58:27;6.20;99.90
14993;DHT22;7592;51.088;13.732;2023-02-01T06:03:18;6.20;99.90
14993;DHT22;7592;51.088;13.732;2023-02-01T06:08:11;6.30;99.90
14993;DHT22;7592;51.088;13.732;2023-02-01T06:13:03;6.30;99.90
14993;DHT22;7592;51.088;13.732;2023-02-01T06:17:55;6.30;99.90
14993;DHT22;7592;51.088;13.732;2023-02-01T06:22:50;6.30;99.90
14993;DHT22;7592;51.088;13.732;2023-02-01T06:27:44;6.30;99.90
14993;DHT22;7592;51.088;13.732;2023-02-01T06:32:36;6.40;99.90
14993;DHT22;7592;51.088;13.732;2023-02-01T06:37:28;6.40;99.90
14993;DHT22;7592;51.088;13.732;2023-02-01T06:42:21;6.30;99.90
14993;DHT22;7592;51.088;13.732;2023-02-01T06:47:13;6.40;99.90
14993;DHT22;7592;51.088;13.732;2023-02-01T06:52:05;6.30;99.90
14993;DHT22;7592;51.088;13.732;2023-02-01T06:56:57;6.40;99.90
14993;DHT22;7592;51.088;13.732;2023-02-01T07:01:50;6.30;99.90
14993;DHT22;7592;51.088;13.732;2023-02-01T07:06:43;6.40;99.90
14993;DHT22;7592;51.088;13.732;2023-02-01T07:11:35;6.40;99.90
14993;DHT22;7592;51.088;13.732;2023-02-01T07:16:29;6.40;99.90
14993;DHT22;7592;51.088;13.732;2023-02-01T07:21:22;6.50;99.90
14993;DHT22;7592;51.088;13.732;2023-02-01T07:26:15;6.50;99.90
14993;DHT22;7592;51.088;13.732;2023-02-01T07:31:10;6.40;99.90
14993;DHT22;7592;51.088;13.732;2023-02-01T07:36:06;6.30;99.90
14993;DHT22;7592;51.088;13.732;2023-02-01T07:40:59;6.20;99.90
14993;DHT22;7592;51.088;13.732;2023-02-01T07:45:52;6.20;99.90
14993;DHT22;7592;51.088;13.732;2023-02-01T07:50:45;6.20;99.90
14993;DHT22;7592;51.088;13.732;2023-02-01T07:55:40;6.20;99.90
14993;DHT22;7592;51.088;13.732;2023-02-01T08:00:32;6.20;99.90
14993;DHT22;7592;51.088;13.732;2023-02-01T08:05:43;6.30;99.90
14993;DHT22;7592;51.088;13.732;2023-02-01T08:10:35;6.30;99.90
14993;DHT22;7592;51.088;13.732;2023-02-01T08:15:28;6.40;99.90
14993;DHT22;7592;51.088;13.732;2023-02-01T08:20:21;6.40;99.90
14993;DHT22;7592;51.088;13.732;2023-02-01T08:25:18;6.50;99.90
14993;DHT22;7592;51.088;13.732;2023-02-01T08:30:10;6.40;99.90
14993;DHT22;7592;51.088;13.732;2023-02-01T08:35:06;6.40;99.90
14993;DHT22;7592;51.088;13.732;2023-02-01T08:39:58;6.30;99.90
14993;DHT22;7592;51.088;13.732;2023-02-01T08:44:50;6.30;99.90
14993;DHT22;7592;51.088;13.732;2023-02-01T08:49:43;6.30;99.90
14993;DHT22;7592;51.088;13.732;2023-02-01T08:54:35;6.50;99.90
14993;DHT22;7592;51.088;13.732;2023-02-01T08:59:27;6.60;99.90
14993;DHT22;7592;51.088;13.732;2023-02-01T09:04:21;7.10;99.90
14993;DHT22;7592;51.088;13.732;2023-02-01T09:09:13;7.60;99.90
14993;DHT22;7592;51.088;13.732;2023-02-01T09:14:06;7.70;99.90
14993;DHT22;7592;51.088;13.732;2023-02-01T09:18:58;7.70;99.90
14993;DHT22;7592;51.088;13.732;2023-02-01T09:24:11;7.70;99.90
14993;DHT22;7592;51.088;13.732;2023-02-01T09:29:04;7.70;99.90
14993;DHT22;7592;51.088;13.732;2023-02-01T09:33:58;7.60;99.90
14993;DHT22;7592;51.088;13.732;2023-02-01T09:38:50;7.60;99.90
14993;DHT22;7592;51.088;13.732;2023-02-01T09:44:13;7.70;99.90
14993;DHT22;7592;51.088;13.732;2023-02-01T09:49:04;7.80;99.90
14993;DHT22;7592;51.088;13.732;2023-02-01T09:54:12;7.50;99.90
14993;DHT22;7592;51.088;13.732;2023-02-01T10:04:18;6.60;99.90
14993;DHT22;7592;51.088;13.732;2023-02-01T10:20:07;6.00;99.90
14993;DHT22;7592;51.088;13.732;2023-02-01T10:25:17;6.00;99.90
14993;DHT22;7592;51.088;13.732;2023-02-01T10:30:16;6.00;99.90
14993;DHT22;7592;51.088;13.732;2023-02-01T10:35:17;6.00;99.90
14993;DHT22;7592;51.088;13.732;2023-02-01T10:40:24;5.90;99.90
14993;DHT22;7592;51.088;13.732;2023-02-01T10:45:20;6.10;99.90
14993;DHT22;7592;51.088;13.732;2023-02-01T10:50:34;6.30;99.90
14993;DHT22;7592;51.088;13.732;2023-02-01T10:55:36;6.40;99.90
14993;DHT22;7592;51.088;13.732;2023-02-01T11:05:48;6.80;99.90
14993;DHT22;7592;51.088;13.732;2023-02-01T11:10:41;7.10;99.90
14993;DHT22;7592;51.088;13.732;2023-02-01T11:15:33;7.10;99.90
14993;DHT22;7592;51.088;13.732;2023-02-01T11:25:24;7.20;99.90
14993;DHT22;7592;51.088;13.732;2023-02-01T11:30:22;7.30;99.90
14993;DHT22;7592;51.088;13.732;2023-02-01T11:35:20;7.30;99.90
14993;DHT22;7592;51.088;13.732;2023-02-01T11:45:24;7.50;99.90
14993;DHT22;7592;51.088;13.732;2023-02-01T11:50:20;7.40;99.90
14993;DHT22;7592;51.088;13.732;2023-02-01T11:56:18;7.70;99.90
14993;DHT22;7592;51.088;13.732;2023-02-01T12:06:05;7.60;99.90
14993;DHT22;7592;51.088;13.732;2023-02-01T12:16:49;7.70;99.90
14993;DHT22;7592;51.088;13.732;2023-02-01T12:42:24;7.60;99.90
14993;DHT22;7592;51.088;13.732;2023-02-01T12:47:32;7.60;99.90
14993;DHT22;7592;51.088;13.732;2023-02-01T12:52:39;7.70;99.90
14993;DHT22;7592;51.088;13.732;2023-02-01T12:57:37;7.70;99.90
14993;DHT22;7592;51.088;13.732;2023-02-01T13:07:54;7.80;99.90
14993;DHT22;7592;51.088;13.732;2023-02-01T13:12:57;7.90;99.90
14993;DHT22;7592;51.088;13.732;2023-02-01T13:17:53;7.90;99.90
14993;DHT22;7592;51.088;13.732;2023-02-01T13:22:53;8.10;99.90
14993;DHT22;7592;51.088;13.732;2023-02-01T13:27:47;8.30;99.90
14993;DHT22;7592;51.088;13.732;2023-02-01T13:43:32;8.30;99.90
14993;DHT22;7592;51.088;13.732;2023-02-01T13:48:47;8.30;99.90
14993;DHT22;7592;51.088;13.732;2023-02-01T13:53:46;8.30;99.90
14993;DHT22;7592;51.088;13.732;2023-02-01T13:58:43;8.20;99.90
14993;DHT22;7592;51.088;13.732;2023-02-01T14:03:59;8.30;99.90
14993;DHT22;7592;51.088;13.732;2023-02-01T14:19:24;8.00;99.90
14993;DHT22;7592;51.088;13.732;2023-02-01T14:24:49;7.90;99.90
14993;DHT22;7592;51.088;13.732;2023-02-01T14:29:51;8.00;99.90
14993;DHT22;7592;51.088;13.732;2023-02-01T14:34:52;8.00;99.90
14993;DHT22;7592;51.088;13.732;2023-02-01T14:44:38;7.90;99.90
14993;DHT22;7592;51.088;13.732;2023-02-01T14:50:10;7.90;99.90
14993;DHT22;7592;51.088;13.732;2023-02-01T14:55:06;7.70;99.90
14993;DHT22;7592;51.088;13.732;2023-02-01T15:00:29;7.70;99.90
14993;DHT22;7592;51.088;13.732;2023-02-01T15:05:28;7.70;99.90
14993;DHT22;7592;51.088;13.732;2023-02-01T15:10:23;7.60;99.90
14993;DHT22;7592;51.088;13.732;2023-02-01T15:15:19;7.50;99.90
14993;DHT22;7592;51.088;13.732;2023-02-01T15:20:16;7.60;99.90
14993;DHT22;7592;51.088;13.732;2023-02-01T15:25:21;7.60;99.90
14993;DHT22;7592;51.088;13.732;2023-02-01T15:30:31;7.50;99.90
14993;DHT22;7592;51.088;13.732;2023-02-01T15:35:33;7.40;99.90
14993;DHT22;7592;51.088;13.732;2023-02-01T15:40:27;7.30;99.90
14993;DHT22;7592;51.088;13.732;2023-02-01T15:45:28;7.30;99.90
14993;DHT22;7592;51.088;13.732;2023-02-01T15:50:21;7.30;99.90
14993;DHT22;7592;51.088;13.732;2023-02-01T16:00:30;7.20;99.90
14993;DHT22;7592;51.088;13.732;2023-02-01T16:05:36;7.20;99.90
14993;DHT22;7592;51.088;13.732;2023-02-01T16:10:39;7.20;99.90
14993;DHT22;7592;51.088;13.732;2023-02-01T16:15:31;7.10;99.90
14993;DHT22;7592;51.088;13.732;2023-02-01T16:20:24;7.00;99.90
14993;DHT22;7592;51.088;13.732;2023-02-01T16:25:16;6.90;99.90
14993;DHT22;7592;51.088;13.732;2023-02-01T16:30:09;6.80;99.90
14993;DHT22;7592;51.088;13.732;2023-02-01T16:35:02;6.70;99.90
14993;DHT22;7592;51.088;13.732;2023-02-01T16:39:56;6.70;99.90
14993;DHT22;7592;51.088;13.732;2023-02-01T16:44:48;6.60;99.90
14993;DHT22;7592;51.088;13.732;2023-02-01T16:49:42;6.40;99.90
14993;DHT22;7592;51.088;13.732;2023-02-01T16:54:34;6.40;99.90
14993;DHT22;7592;51.088;13.732;2023-02-01T16:59:26;6.20;99.90
14993;DHT22;7592;51.088;13.732;2023-02-01T17:04:18;6.10;99.90
14993;DHT22;7592;51.088;13.732;2023-02-01T17:09:12;6.10;99.90
14993;DHT22;7592;51.088;13.732;2023-02-01T17:14:16;5.40;99.90
14993;DHT22;7592;51.088;13.732;2023-02-01T17:19:13;4.70;99.90
14993;DHT22;7592;51.088;13.732;2023-02-01T17:24:09;4.50;99.90
14993;DHT22;7592;51.088;13.732;2023-02-01T17:29:01;4.40;99.90
14993;DHT22;7592;51.088;13.732;2023-02-01T17:33:53;4.30;99.90
14993;DHT22;7592;51.088;13.732;2023-02-01T17:38:46;4.20;99.90
14993;DHT22;7592;51.088;13.732;2023-02-01T17:43:55;4.10;99.90
14993;DHT22;7592;51.088;13.732;2023-02-01T17:48:47;4.00;99.90
14993;DHT22;7592;51.088;13.732;2023-02-01T17:53:39;3.90;99.90
14993;DHT22;7592;51.088;13.732;2023-02-01T17:58:31;3.80;99.90
14993;DHT22;7592;51.088;13.732;2023-02-01T18:03:26;3.80;99.90
14993;DHT22;7592;51.088;13.732;2023-02-01T18:08:20;3.80;99.90
14993;DHT22;7592;51.088;13.732;2023-02-01T18:13:13;3.90;99.90
14993;DHT22;7592;51.088;13.732;2023-02-01T18:18:05;4.00;99.90
14993;DHT22;7592;51.088;13.732;2023-02-01T18:22:58;4.00;99.90
14993;DHT22;7592;51.088;13.732;2023-02-01T18:27:51;4.10;99.90
14993;DHT22;7592;51.088;13.732;2023-02-01T18:32:45;4.20;99.90
14993;DHT22;7592;51.088;13.732;2023-02-01T18:37:37;4.20;99.90
14993;DHT22;7592;51.088;13.732;2023-02-01T18:42:29;4.20;99.90
14993;DHT22;7592;51.088;13.732;2023-02-01T18:47:21;4.20;99.90
14993;DHT22;7592;51.088;13.732;2023-02-01T18:52:13;4.30;99.90
14993;DHT22;7592;51.088;13.732;2023-02-01T18:57:06;4.30;99.90
14993;DHT22;7592;51.088;13.732;2023-02-01T19:01:58;4.40;99.90
14993;DHT22;7592;51.088;13.732;2023-02-01T19:06:50;4.40;99.90
14993;DHT22;7592;51.088;13.732;2023-02-01T19:11:42;4.50;99.90
14993;DHT22;7592;51.088;13.732;2023-02-01T19:16:34;4.40;99.90
14993;DHT22;7592;51.088;13.732;2023-02-01T19:21:30;4.50;99.90
14993;DHT22;7592;51.088;13.732;2023-02-01T19:26:22;4.40;99.90
14993;DHT22;7592;51.088;13.732;2023-02-01T19:31:15;4.50;99.90
14993;DHT22;7592;51.088;13.732;2023-02-01T19:36:08;4.50;99.90
14993;DHT22;7592;51.088;13.732;2023-02-01T19:41:01;4.50;99.90
14993;DHT22;7592;51.088;13.732;2023-02-01T19:45:54;4.60;99.90
14993;DHT22;7592;51.088;13.732;2023-02-01T19:50:46;4.70;99.90
14993;DHT22;7592;51.088;13.732;2023-02-01T19:55:43;4.60;99.90
14993;DHT22;7592;51.088;13.732;2023-02-01T20:00:36;4.70;99.90
14993;DHT22;7592;51.088;13.732;2023-02-01T20:05:28;4.80;99.90
14993;DHT22;7592;51.088;13.732;2023-02-01T20:10:22;4.80;99.90
14993;DHT22;7592;51.088;13.732;2023-02-01T20:15:14;4.90;99.90
14993;DHT22;7592;51.088;13.732;2023-02-01T20:20:08;5.00;99.90
14993;DHT22;7592;51.088;13.732;2023-02-01T20:25:01;5.10;99.90
14993;DHT22;7592;51.088;13.732;2023-02-01T20:29:54;5.00;99.90
14993;DHT22;7592;51.088;13.732;2023-02-01T20:34:46;5.00;99.90
14993;DHT22;7592;51.088;13.732;2023-02-01T20:39:41;5.00;99.90
14993;DHT22;7592;51.088;13.732;2023-02-01T20:44:33;5.00;99.90
14993;DHT22;7592;51.088;13.732;2023-02-01T20:49:26;5.00;99.90
14993;DHT22;7592;51.088;13.732;2023-02-01T20:54:18;4.80;99.90
14993;DHT22;7592;51.088;13.732;2023-02-01T20:59:10;4.70;99.90
14993;DHT22;7592;51.088;13.732;2023-02-01T21:04:03;4.70;99.90
14993;DHT22;7592;51.088;13.732;2023-02-01T21:08:55;4.60;99.90
14993;DHT22;7592;51.088;13.732;2023-02-01T21:13:47;4.70;99.90
14993;DHT22;7592;51.088;13.732;2023-02-01T21:18:42;4.90;99.90
14993;DHT22;7592;51.088;13.732;2023-02-01T21:23:35;4.90;99.90
14993;DHT22;7592;51.088;13.732;2023-02-01T21:28:36;4.90;99.90
14993;DHT22;7592;51.088;13.732;2023-02-01T21:33:28;4.70;99.90
14993;DHT22;7592;51.088;13.732;2023-02-01T21:38:20;4.80;99.90
14993;DHT22;7592;51.088;13.732;2023-02-01T21:43:12;4.70;99.90
14993;DHT22;7592;51.088;13.732;2023-02-01T21:48:04;4.70;99.90
14993;DHT22;7592;51.088;13.732;2023-02-01T21:52:57;4.70;99.90
14993;DHT22;7592;51.088;13.732;2023-02-01T21:57:49;4.80;99.90
14993;DHT22;7592;51.088;13.732;2023-02-01T22:02:42;4.80;99.90
14993;DHT22;7592;51.088;13.732;2023-02-01T22:07:34;4.80;99.90
14993;DHT22;7592;51.088;13.732;2023-02-01T22:12:27;4.80;99.90
14993;DHT22;7592;51.088;13.732;2023-02-01T22:17:19;4.90;99.90
14993;DHT22;7592;51.088;13.732;2023-02-01T22:22:11;4.90;99.90
14993;DHT22;7592;51.088;13.732;2023-02-01T22:27:03;4.90;99.90
14993;DHT22;7592;51.088;13.732;2023-02-01T22:32:05;4.90;99.90
14993;DHT22;7592;51.088;13.732;2023-02-01T22:36:57;4.80;99.90
14993;DHT22;7592;51.088;13.732;2023-02-01T22:41:49;4.80;99.90
14993;DHT22;7592;51.088;13.732;2023-02-01T22:46:41;4.80;99.90
14993;DHT22;7592;51.088;13.732;2023-02-01T22:51:34;4.70;99.90
14993;DHT22;7592;51.088;13.732;2023-02-01T22:56:32;4.70;99.90
14993;DHT22;7592;51.088;13.732;2023-02-01T23:01:25;4.70;99.90
14993;DHT22;7592;51.088;13.732;2023-02-01T23:06:18;4.70;99.90
14993;DHT22;7592;51.088;13.732;2023-02-01T23:11:10;4.70;99.90
14993;DHT22;7592;51.088;13.732;2023-02-01T23:16:05;4.70;99.90
14993;DHT22;7592;51.088;13.732;2023-02-01T23:21:14;4.80;99.90
14993;DHT22;7592;51.088;13.732;2023-02-01T23:26:06;4.90;99.90
14993;DHT22;7592;51.088;13.732;2023-02-01T23:30:58;5.00;99.90
14993;DHT22;7592;51.088;13.732;2023-02-01T23:36:02;5.10;99.90
14993;DHT22;7592;51.088;13.732;2023-02-01T23:41:02;5.00;99.90
14993;DHT22;7592;51.088;13.732;2023-02-01T23:45:57;5.00;99.90
14993;DHT22;7592;51.088;13.732;2023-02-01T23:50:49;5.00;99.90
14993;DHT22;7592;51.088;13.732;2023-02-01T23:55:41;5.00;99.90
